sensor_id;sensor_type;location;lat;lon;timestamp;P1;durP1;ratioP1;P2;durP2;ratioP2
823;SDS011;373;49.342;8.146;2023-05-10T00:01:45;0.80;;;0.80;;
823;SDS011;373;49.342;8.146;2023-05-10T00:04:12;1.13;;;1.10;;
823;SDS011;373;49.342;8.146;2023-05-10T00:06:40;0.95;;;0.95;;
823;SDS011;373;49.342;8.146;2023-05-10T00:09:07;0.73;;;0.73;;
823;SDS011;373;49.342;8.146;2023-05-10T00:11:34;0.82;;;0.73;;
823;SDS011;373;49.342;8.146;2023-05-10T00:14:01;1.63;;;0.85;;
823;SDS011;373;49.342;8.146;2023-05-10T00:16:29;0.98;;;0.70;;
823;SDS011;373;49.342;8.146;2023-05-10T00:18:59;0.88;;;0.77;;
823;SDS011;373;49.342;8.146;2023-05-10T00:21:26;0.60;;;0.60;;
823;SDS011;373;49.342;8.146;2023-05-10T00:23:55;0.80;;;0.65;;
823;SDS011;373;49.342;8.146;2023-05-10T00:26:23;0.65;;;0.52;;
823;SDS011;373;49.342;8.146;2023-05-10T00:28:53;0.70;;;0.70;;
823;SDS011;373;49.342;8.146;2023-05-10T00:31:20;0.63;;;0.63;;
823;SDS011;373;49.342;8.146;2023-05-10T00:33:47;0.75;;;0.68;;
823;SDS011;373;49.342;8.146;2023-05-10T00:36:14;0.68;;;0.68;;
823;SDS011;373;49.342;8.146;2023-05-10T00:38:41;0.73;;;0.73;;
823;SDS011;373;49.342;8.146;2023-05-10T00:41:09;0.95;;;0.95;;
823;SDS011;373;49.342;8.146;2023-05-10T00:43:38;1.15;;;0.77;;
823;SDS011;373;49.342;8.146;2023-05-10T00:46:05;0.70;;;0.70;;
823;SDS011;373;49.342;8.146;2023-05-10T00:48:33;0.50;;;0.50;;
823;SDS011;373;49.342;8.146;2023-05-10T00:51:01;0.88;;;0.45;;
823;SDS011;373;49.342;8.146;2023-05-10T00:53:30;0.77;;;0.60;;
823;SDS011;373;49.342;8.146;2023-05-10T00:55:58;0.52;;;0.52;;
823;SDS011;373;49.342;8.146;2023-05-10T00:58:27;0.93;;;0.50;;
823;SDS011;373;49.342;8.146;2023-05-10T01:00:56;2.13;;;0.57;;
823;SDS011;373;49.342;8.146;2023-05-10T01:03:24;0.80;;;0.80;;
823;SDS011;373;49.342;8.146;2023-05-10T01:05:51;0.93;;;0.93;;
823;SDS011;373;49.342;8.146;2023-05-10T01:08:18;0.95;;;0.95;;
823;SDS011;373;49.342;8.146;2023-05-10T01:10:46;0.70;;;0.70;;
823;SDS011;373;49.342;8.146;2023-05-10T01:13:15;0.70;;;0.70;;
823;SDS011;373;49.342;8.146;2023-05-10T01:15:53;1.15;;;1.05;;
823;SDS011;373;49.342;8.146;2023-05-10T01:18:20;0.70;;;0.70;;
823;SDS011;373;49.342;8.146;2023-05-10T01:20:48;0.70;;;0.70;;
823;SDS011;373;49.342;8.146;2023-05-10T01:23:36;0.77;;;0.77;;
823;SDS011;373;49.342;8.146;2023-05-10T01:26:23;0.73;;;0.73;;
823;SDS011;373;49.342;8.146;2023-05-10T01:29:11;0.85;;;0.85;;
823;SDS011;373;49.342;8.146;2023-05-10T01:32:01;0.93;;;0.90;;
823;SDS011;373;49.342;8.146;2023-05-10T01:34:39;2.30;;;1.17;;
823;SDS011;373;49.342;8.146;2023-05-10T01:37:13;1.48;;;1.38;;
823;SDS011;373;49.342;8.146;2023-05-10T01:39:47;2.05;;;1.27;;
823;SDS011;373;49.342;8.146;2023-05-10T01:42:20;0.95;;;0.95;;
823;SDS011;373;49.342;8.146;2023-05-10T01:44:52;1.55;;;1.23;;
823;SDS011;373;49.342;8.146;2023-05-10T01:47:29;1.50;;;1.40;;
823;SDS011;373;49.342;8.146;2023-05-10T01:50:01;1.65;;;1.55;;
823;SDS011;373;49.342;8.146;2023-05-10T01:52:31;1.50;;;1.40;;
823;SDS011;373;49.342;8.146;2023-05-10T01:55:04;1.45;;;1.35;;
823;SDS011;373;49.342;8.146;2023-05-10T01:57:35;2.20;;;2.10;;
823;SDS011;373;49.342;8.146;2023-05-10T02:00:05;1.67;;;1.58;;
823;SDS011;373;49.342;8.146;2023-05-10T02:02:44;1.70;;;1.60;;
823;SDS011;373;49.342;8.146;2023-05-10T02:05:12;3.58;;;2.00;;
823;SDS011;373;49.342;8.146;2023-05-10T02:07:41;1.80;;;1.70;;
823;SDS011;373;49.342;8.146;2023-05-10T02:10:10;1.75;;;1.65;;
823;SDS011;373;49.342;8.146;2023-05-10T02:12:41;1.85;;;1.75;;
823;SDS011;373;49.342;8.146;2023-05-10T02:15:08;1.20;;;1.10;;
823;SDS011;373;49.342;8.146;2023-05-10T02:17:39;1.50;;;1.40;;
823;SDS011;373;49.342;8.146;2023-05-10T02:20:10;1.70;;;1.45;;
823;SDS011;373;49.342;8.146;2023-05-10T02:22:38;1.17;;;1.05;;
823;SDS011;373;49.342;8.146;2023-05-10T02:25:08;1.33;;;1.23;;
823;SDS011;373;49.342;8.146;2023-05-10T02:27:36;1.33;;;1.20;;
823;SDS011;373;49.342;8.146;2023-05-10T02:30:07;2.25;;;1.10;;
823;SDS011;373;49.342;8.146;2023-05-10T02:32:36;8.38;;;1.40;;
823;SDS011;373;49.342;8.146;2023-05-10T02:35:05;1.88;;;1.10;;
823;SDS011;373;49.342;8.146;2023-05-10T02:37:35;5.20;;;1.02;;
823;SDS011;373;49.342;8.146;2023-05-10T02:40:04;1.98;;;1.33;;
823;SDS011;373;49.342;8.146;2023-05-10T02:42:33;0.98;;;0.93;;
823;SDS011;373;49.342;8.146;2023-05-10T02:45:04;1.00;;;1.00;;
823;SDS011;373;49.342;8.146;2023-05-10T02:47:34;1.33;;;1.23;;
823;SDS011;373;49.342;8.146;2023-05-10T02:50:02;1.65;;;1.30;;
823;SDS011;373;49.342;8.146;2023-05-10T02:52:34;1.50;;;1.00;;
823;SDS011;373;49.342;8.146;2023-05-10T02:55:08;1.23;;;1.13;;
823;SDS011;373;49.342;8.146;2023-05-10T02:57:38;0.70;;;0.70;;
823;SDS011;373;49.342;8.146;2023-05-10T03:00:10;1.05;;;0.95;;
823;SDS011;373;49.342;8.146;2023-05-10T03:02:37;1.50;;;1.40;;
823;SDS011;373;49.342;8.146;2023-05-10T03:05:04;2.45;;;0.88;;
823;SDS011;373;49.342;8.146;2023-05-10T03:07:32;1.30;;;1.20;;
823;SDS011;373;49.342;8.146;2023-05-10T03:10:02;1.40;;;0.93;;
823;SDS011;373;49.342;8.146;2023-05-10T03:12:31;1.00;;;1.00;;
823;SDS011;373;49.342;8.146;2023-05-10T03:15:09;1.05;;;0.80;;
823;SDS011;373;49.342;8.146;2023-05-10T03:17:46;1.55;;;0.88;;
823;SDS011;373;49.342;8.146;2023-05-10T03:20:20;1.15;;;0.80;;
823;SDS011;373;49.342;8.146;2023-05-10T03:22:51;1.52;;;0.80;;
823;SDS011;373;49.342;8.146;2023-05-10T03:25:24;1.70;;;0.95;;
823;SDS011;373;49.342;8.146;2023-05-10T03:27:52;1.48;;;1.38;;
823;SDS011;373;49.342;8.146;2023-05-10T03:30:21;1.48;;;1.10;;
823;SDS011;373;49.342;8.146;2023-05-10T03:32:48;1.58;;;0.90;;
823;SDS011;373;49.342;8.146;2023-05-10T03:35:16;1.85;;;1.20;;
823;SDS011;373;49.342;8.146;2023-05-10T03:37:44;1.33;;;1.23;;
823;SDS011;373;49.342;8.146;2023-05-10T03:40:11;2.35;;;1.15;;
823;SDS011;373;49.342;8.146;2023-05-10T03:42:42;1.40;;;1.30;;
823;SDS011;373;49.342;8.146;2023-05-10T03:45:10;2.95;;;1.80;;
823;SDS011;373;49.342;8.146;2023-05-10T03:47:37;1.77;;;1.35;;
823;SDS011;373;49.342;8.146;2023-05-10T03:50:05;1.60;;;1.50;;
823;SDS011;373;49.342;8.146;2023-05-10T03:52:32;1.65;;;1.45;;
823;SDS011;373;49.342;8.146;2023-05-10T03:54:59;3.38;;;1.60;;
823;SDS011;373;49.342;8.146;2023-05-10T03:57:28;1.30;;;1.20;;
823;SDS011;373;49.342;8.146;2023-05-10T03:59:56;1.80;;;1.70;;
823;SDS011;373;49.342;8.146;2023-05-10T04:02:23;1.65;;;1.50;;
823;SDS011;373;49.342;8.146;2023-05-10T04:04:50;2.50;;;1.98;;
823;SDS011;373;49.342;8.146;2023-05-10T04:07:18;2.65;;;1.70;;
823;SDS011;373;49.342;8.146;2023-05-10T04:09:45;2.17;;;1.58;;
823;SDS011;373;49.342;8.146;2023-05-10T04:12:13;2.72;;;1.70;;
823;SDS011;373;49.342;8.146;2023-05-10T04:14:40;2.35;;;1.52;;
823;SDS011;373;49.342;8.146;2023-05-10T04:17:08;1.63;;;1.52;;
823;SDS011;373;49.342;8.146;2023-05-10T04:19:35;2.03;;;1.58;;
823;SDS011;373;49.342;8.146;2023-05-10T04:22:02;1.83;;;1.73;;
823;SDS011;373;49.342;8.146;2023-05-10T04:24:30;1.95;;;1.30;;
823;SDS011;373;49.342;8.146;2023-05-10T04:26:57;1.48;;;1.38;;
823;SDS011;373;49.342;8.146;2023-05-10T04:29:24;1.40;;;1.30;;
823;SDS011;373;49.342;8.146;2023-05-10T04:31:55;1.60;;;1.50;;
823;SDS011;373;49.342;8.146;2023-05-10T04:34:24;1.83;;;1.40;;
823;SDS011;373;49.342;8.146;2023-05-10T04:36:51;1.48;;;1.38;;
823;SDS011;373;49.342;8.146;2023-05-10T04:39:18;1.73;;;1.35;;
823;SDS011;373;49.342;8.146;2023-05-10T04:41:45;1.38;;;1.27;;
823;SDS011;373;49.342;8.146;2023-05-10T04:44:12;1.75;;;1.48;;
823;SDS011;373;49.342;8.146;2023-05-10T04:46:39;3.30;;;1.30;;
823;SDS011;373;49.342;8.146;2023-05-10T04:49:06;1.88;;;1.17;;
823;SDS011;373;49.342;8.146;2023-05-10T04:51:35;2.10;;;1.15;;
823;SDS011;373;49.342;8.146;2023-05-10T04:54:02;1.55;;;1.30;;
823;SDS011;373;49.342;8.146;2023-05-10T04:56:29;1.45;;;1.02;;
823;SDS011;373;49.342;8.146;2023-05-10T04:58:56;1.13;;;1.13;;
823;SDS011;373;49.342;8.146;2023-05-10T05:01:23;1.20;;;1.10;;
823;SDS011;373;49.342;8.146;2023-05-10T05:03:50;1.10;;;1.00;;
823;SDS011;373;49.342;8.146;2023-05-10T05:06:18;1.98;;;1.00;;
823;SDS011;373;49.342;8.146;2023-05-10T05:09:07;1.33;;;1.00;;
823;SDS011;373;49.342;8.146;2023-05-10T05:11:35;1.15;;;0.70;;
823;SDS011;373;49.342;8.146;2023-05-10T05:14:02;1.20;;;1.10;;
823;SDS011;373;49.342;8.146;2023-05-10T05:16:30;0.73;;;0.73;;
823;SDS011;373;49.342;8.146;2023-05-10T05:18:57;2.22;;;1.10;;
823;SDS011;373;49.342;8.146;2023-05-10T05:21:24;1.42;;;1.33;;
823;SDS011;373;49.342;8.146;2023-05-10T05:23:52;1.58;;;1.35;;
823;SDS011;373;49.342;8.146;2023-05-10T05:26:20;1.48;;;1.10;;
823;SDS011;373;49.342;8.146;2023-05-10T05:28:47;0.60;;;0.60;;
823;SDS011;373;49.342;8.146;2023-05-10T05:31:17;1.33;;;0.70;;
823;SDS011;373;49.342;8.146;2023-05-10T05:33:44;1.02;;;0.70;;
823;SDS011;373;49.342;8.146;2023-05-10T05:36:11;1.02;;;0.93;;
823;SDS011;373;49.342;8.146;2023-05-10T05:38:39;0.80;;;0.68;;
823;SDS011;373;49.342;8.146;2023-05-10T05:41:06;1.33;;;0.98;;
823;SDS011;373;49.342;8.146;2023-05-10T05:43:34;0.80;;;0.80;;
823;SDS011;373;49.342;8.146;2023-05-10T05:46:01;0.80;;;0.80;;
823;SDS011;373;49.342;8.146;2023-05-10T05:48:29;0.60;;;0.60;;
823;SDS011;373;49.342;8.146;2023-05-10T05:50:56;0.93;;;0.68;;
823;SDS011;373;49.342;8.146;2023-05-10T05:53:23;1.08;;;0.88;;
823;SDS011;373;49.342;8.146;2023-05-10T05:55:51;0.70;;;0.70;;
823;SDS011;373;49.342;8.146;2023-05-10T05:58:19;0.90;;;0.90;;
823;SDS011;373;49.342;8.146;2023-05-10T06:00:47;1.67;;;0.63;;
823;SDS011;373;49.342;8.146;2023-05-10T06:03:18;1.00;;;0.90;;
823;SDS011;373;49.342;8.146;2023-05-10T06:05:50;0.82;;;0.80;;
823;SDS011;373;49.342;8.146;2023-05-10T06:08:17;2.47;;;1.23;;
823;SDS011;373;49.342;8.146;2023-05-10T06:10:49;2.95;;;1.42;;
823;SDS011;373;49.342;8.146;2023-05-10T06:13:25;1.13;;;1.02;;
823;SDS011;373;49.342;8.146;2023-05-10T06:15:58;0.60;;;0.60;;
823;SDS011;373;49.342;8.146;2023-05-10T06:18:25;1.38;;;1.00;;
823;SDS011;373;49.342;8.146;2023-05-10T06:20:55;0.93;;;0.75;;
823;SDS011;373;49.342;8.146;2023-05-10T06:23:22;0.63;;;0.63;;
823;SDS011;373;49.342;8.146;2023-05-10T06:25:52;0.55;;;0.55;;
823;SDS011;373;49.342;8.146;2023-05-10T06:28:19;0.80;;;0.80;;
823;SDS011;373;49.342;8.146;2023-05-10T06:30:46;3.80;;;0.80;;
823;SDS011;373;49.342;8.146;2023-05-10T06:33:15;0.73;;;0.73;;
823;SDS011;373;49.342;8.146;2023-05-10T06:35:42;1.30;;;0.80;;
823;SDS011;373;49.342;8.146;2023-05-10T06:38:10;0.80;;;0.70;;
823;SDS011;373;49.342;8.146;2023-05-10T06:40:40;0.82;;;0.52;;
823;SDS011;373;49.342;8.146;2023-05-10T06:43:08;0.70;;;0.52;;
823;SDS011;373;49.342;8.146;2023-05-10T06:45:36;1.67;;;0.75;;
823;SDS011;373;49.342;8.146;2023-05-10T06:48:03;0.60;;;0.60;;
823;SDS011;373;49.342;8.146;2023-05-10T06:50:32;1.83;;;0.68;;
823;SDS011;373;49.342;8.146;2023-05-10T06:53:00;0.82;;;0.80;;
823;SDS011;373;49.342;8.146;2023-05-10T06:55:28;0.47;;;0.47;;
823;SDS011;373;49.342;8.146;2023-05-10T06:57:58;1.42;;;0.60;;
823;SDS011;373;49.342;8.146;2023-05-10T07:00:25;0.80;;;0.70;;
823;SDS011;373;49.342;8.146;2023-05-10T07:02:52;0.52;;;0.52;;
823;SDS011;373;49.342;8.146;2023-05-10T07:05:20;0.55;;;0.55;;
823;SDS011;373;49.342;8.146;2023-05-10T07:07:50;1.05;;;0.50;;
823;SDS011;373;49.342;8.146;2023-05-10T07:10:17;1.85;;;0.70;;
823;SDS011;373;49.342;8.146;2023-05-10T07:12:44;0.55;;;0.55;;
823;SDS011;373;49.342;8.146;2023-05-10T07:15:12;0.45;;;0.45;;
823;SDS011;373;49.342;8.146;2023-05-10T07:17:39;1.58;;;0.52;;
823;SDS011;373;49.342;8.146;2023-05-10T07:20:07;0.50;;;0.50;;
823;SDS011;373;49.342;8.146;2023-05-10T07:22:35;0.45;;;0.35;;
823;SDS011;373;49.342;8.146;2023-05-10T07:25:04;1.25;;;0.52;;
823;SDS011;373;49.342;8.146;2023-05-10T07:27:32;1.10;;;0.70;;
823;SDS011;373;49.342;8.146;2023-05-10T07:30:00;0.93;;;0.70;;
823;SDS011;373;49.342;8.146;2023-05-10T07:32:28;0.43;;;0.40;;
823;SDS011;373;49.342;8.146;2023-05-10T07:34:55;0.32;;;0.32;;
823;SDS011;373;49.342;8.146;2023-05-10T07:37:23;1.20;;;0.50;;
823;SDS011;373;49.342;8.146;2023-05-10T07:39:50;1.35;;;0.60;;
823;SDS011;373;49.342;8.146;2023-05-10T07:42:19;0.63;;;0.40;;
823;SDS011;373;49.342;8.146;2023-05-10T07:44:47;4.97;;;0.95;;
823;SDS011;373;49.342;8.146;2023-05-10T07:47:15;0.40;;;0.40;;
823;SDS011;373;49.342;8.146;2023-05-10T07:49:42;0.90;;;0.57;;
823;SDS011;373;49.342;8.146;2023-05-10T07:52:10;1.38;;;0.50;;
823;SDS011;373;49.342;8.146;2023-05-10T07:54:37;0.90;;;0.43;;
823;SDS011;373;49.342;8.146;2023-05-10T07:57:04;0.40;;;0.40;;
823;SDS011;373;49.342;8.146;2023-05-10T07:59:34;0.40;;;0.40;;
823;SDS011;373;49.342;8.146;2023-05-10T08:02:01;0.85;;;0.40;;
823;SDS011;373;49.342;8.146;2023-05-10T08:04:29;0.47;;;0.47;;
823;SDS011;373;49.342;8.146;2023-05-10T08:06:57;0.60;;;0.60;;
823;SDS011;373;49.342;8.146;2023-05-10T08:09:28;0.50;;;0.50;;
823;SDS011;373;49.342;8.146;2023-05-10T08:11:55;0.43;;;0.43;;
823;SDS011;373;49.342;8.146;2023-05-10T08:14:24;3.10;;;0.77;;
823;SDS011;373;49.342;8.146;2023-05-10T08:17:01;0.80;;;0.70;;
823;SDS011;373;49.342;8.146;2023-05-10T08:19:33;0.57;;;0.57;;
823;SDS011;373;49.342;8.146;2023-05-10T08:22:03;1.40;;;0.85;;
823;SDS011;373;49.342;8.146;2023-05-10T08:24:30;1.00;;;0.60;;
823;SDS011;373;49.342;8.146;2023-05-10T08:27:00;1.23;;;0.50;;
823;SDS011;373;49.342;8.146;2023-05-10T08:29:27;0.70;;;0.57;;
823;SDS011;373;49.342;8.146;2023-05-10T08:31:57;1.42;;;0.68;;
823;SDS011;373;49.342;8.146;2023-05-10T08:34:24;0.88;;;0.47;;
823;SDS011;373;49.342;8.146;2023-05-10T08:36:52;0.40;;;0.40;;
823;SDS011;373;49.342;8.146;2023-05-10T08:39:20;0.80;;;0.50;;
823;SDS011;373;49.342;8.146;2023-05-10T08:41:48;0.50;;;0.40;;
823;SDS011;373;49.342;8.146;2023-05-10T08:44:19;0.75;;;0.40;;
823;SDS011;373;49.342;8.146;2023-05-10T08:46:49;1.10;;;0.50;;
823;SDS011;373;49.342;8.146;2023-05-10T08:49:28;0.85;;;0.40;;
823;SDS011;373;49.342;8.146;2023-05-10T08:52:05;0.28;;;0.28;;
823;SDS011;373;49.342;8.146;2023-05-10T08:54:47;0.30;;;0.30;;
823;SDS011;373;49.342;8.146;2023-05-10T08:57:14;0.40;;;0.30;;
823;SDS011;373;49.342;8.146;2023-05-10T08:59:43;0.57;;;0.30;;
823;SDS011;373;49.342;8.146;2023-05-10T09:02:12;0.35;;;0.30;;
823;SDS011;373;49.342;8.146;2023-05-10T09:04:41;0.63;;;0.40;;
823;SDS011;373;49.342;8.146;2023-05-10T09:07:09;0.82;;;0.40;;
823;SDS011;373;49.342;8.146;2023-05-10T09:09:38;0.85;;;0.50;;
823;SDS011;373;49.342;8.146;2023-05-10T09:12:12;0.68;;;0.50;;
823;SDS011;373;49.342;8.146;2023-05-10T09:14:41;0.75;;;0.40;;
823;SDS011;373;49.342;8.146;2023-05-10T09:17:11;0.55;;;0.40;;
823;SDS011;373;49.342;8.146;2023-05-10T09:19:39;0.57;;;0.50;;
823;SDS011;373;49.342;8.146;2023-05-10T09:22:07;0.30;;;0.30;;
823;SDS011;373;49.342;8.146;2023-05-10T09:24:36;0.45;;;0.32;;
823;SDS011;373;49.342;8.146;2023-05-10T09:27:07;2.97;;;0.40;;
823;SDS011;373;49.342;8.146;2023-05-10T09:29:41;1.60;;;0.60;;
823;SDS011;373;49.342;8.146;2023-05-10T09:32:09;2.30;;;1.05;;
823;SDS011;373;49.342;8.146;2023-05-10T09:34:37;0.73;;;0.40;;
823;SDS011;373;49.342;8.146;2023-05-10T09:37:08;0.63;;;0.50;;
823;SDS011;373;49.342;8.146;2023-05-10T09:39:36;2.92;;;0.70;;
823;SDS011;373;49.342;8.146;2023-05-10T09:42:05;0.45;;;0.45;;
823;SDS011;373;49.342;8.146;2023-05-10T09:44:33;0.88;;;0.50;;
823;SDS011;373;49.342;8.146;2023-05-10T09:47:02;3.97;;;0.60;;
823;SDS011;373;49.342;8.146;2023-05-10T09:49:30;1.70;;;0.45;;
823;SDS011;373;49.342;8.146;2023-05-10T09:52:01;0.63;;;0.50;;
823;SDS011;373;49.342;8.146;2023-05-10T09:54:32;0.38;;;0.38;;
823;SDS011;373;49.342;8.146;2023-05-10T09:57:01;0.47;;;0.47;;
823;SDS011;373;49.342;8.146;2023-05-10T09:59:28;0.50;;;0.30;;
823;SDS011;373;49.342;8.146;2023-05-10T10:01:56;0.65;;;0.45;;
823;SDS011;373;49.342;8.146;2023-05-10T10:04:25;0.63;;;0.50;;
823;SDS011;373;49.342;8.146;2023-05-10T10:06:59;0.82;;;0.50;;
823;SDS011;373;49.342;8.146;2023-05-10T10:09:30;0.57;;;0.57;;
823;SDS011;373;49.342;8.146;2023-05-10T10:11:59;1.30;;;0.73;;
823;SDS011;373;49.342;8.146;2023-05-10T10:14:28;0.38;;;0.30;;
823;SDS011;373;49.342;8.146;2023-05-10T10:16:56;0.60;;;0.45;;
823;SDS011;373;49.342;8.146;2023-05-10T10:19:26;0.70;;;0.70;;
823;SDS011;373;49.342;8.146;2023-05-10T10:21:54;2.28;;;0.52;;
823;SDS011;373;49.342;8.146;2023-05-10T10:24:21;1.55;;;0.47;;
823;SDS011;373;49.342;8.146;2023-05-10T10:26:50;2.78;;;0.65;;
823;SDS011;373;49.342;8.146;2023-05-10T10:29:26;2.05;;;0.60;;
823;SDS011;373;49.342;8.146;2023-05-10T10:32:03;0.57;;;0.40;;
823;SDS011;373;49.342;8.146;2023-05-10T10:34:38;0.93;;;0.60;;
823;SDS011;373;49.342;8.146;2023-05-10T10:37:06;1.60;;;0.55;;
823;SDS011;373;49.342;8.146;2023-05-10T10:39:34;0.93;;;0.43;;
823;SDS011;373;49.342;8.146;2023-05-10T10:42:03;1.00;;;0.40;;
823;SDS011;373;49.342;8.146;2023-05-10T10:44:35;1.48;;;0.77;;
823;SDS011;373;49.342;8.146;2023-05-10T10:47:05;0.40;;;0.40;;
823;SDS011;373;49.342;8.146;2023-05-10T10:50:03;1.30;;;0.63;;
823;SDS011;373;49.342;8.146;2023-05-10T10:52:32;0.68;;;0.50;;
823;SDS011;373;49.342;8.146;2023-05-10T10:55:01;1.70;;;0.50;;
823;SDS011;373;49.342;8.146;2023-05-10T10:57:32;2.50;;;0.82;;
823;SDS011;373;49.342;8.146;2023-05-10T11:00:19;4.50;;;0.70;;
823;SDS011;373;49.342;8.146;2023-05-10T11:02:51;1.92;;;0.52;;
823;SDS011;373;49.342;8.146;2023-05-10T11:08:07;1.00;;;0.65;;
823;SDS011;373;49.342;8.146;2023-05-10T11:10:50;1.10;;;0.80;;
823;SDS011;373;49.342;8.146;2023-05-10T11:13:27;2.95;;;0.77;;
823;SDS011;373;49.342;8.146;2023-05-10T11:15:56;1.17;;;0.50;;
823;SDS011;373;49.342;8.146;2023-05-10T11:18:24;1.33;;;0.70;;
823;SDS011;373;49.342;8.146;2023-05-10T11:20:55;1.15;;;0.70;;
823;SDS011;373;49.342;8.146;2023-05-10T11:23:29;1.73;;;0.80;;
823;SDS011;373;49.342;8.146;2023-05-10T11:25:57;0.77;;;0.70;;
823;SDS011;373;49.342;8.146;2023-05-10T11:28:25;1.55;;;0.70;;
823;SDS011;373;49.342;8.146;2023-05-10T11:30:54;0.90;;;0.50;;
823;SDS011;373;49.342;8.146;2023-05-10T11:33:22;1.70;;;0.75;;
823;SDS011;373;49.342;8.146;2023-05-10T11:35:49;1.38;;;0.60;;
823;SDS011;373;49.342;8.146;2023-05-10T11:38:16;2.17;;;0.95;;
823;SDS011;373;49.342;8.146;2023-05-10T11:40:43;3.42;;;0.90;;
823;SDS011;373;49.342;8.146;2023-05-10T11:43:10;2.03;;;0.60;;
823;SDS011;373;49.342;8.146;2023-05-10T11:45:41;2.88;;;0.60;;
823;SDS011;373;49.342;8.146;2023-05-10T11:48:09;2.38;;;0.60;;
823;SDS011;373;49.342;8.146;2023-05-10T11:50:36;1.95;;;0.68;;
823;SDS011;373;49.342;8.146;2023-05-10T11:53:04;1.10;;;0.70;;
823;SDS011;373;49.342;8.146;2023-05-10T11:55:33;2.05;;;0.75;;
823;SDS011;373;49.342;8.146;2023-05-10T11:58:01;0.63;;;0.60;;
823;SDS011;373;49.342;8.146;2023-05-10T12:00:29;1.70;;;0.50;;
823;SDS011;373;49.342;8.146;2023-05-10T12:02:59;0.57;;;0.38;;
823;SDS011;373;49.342;8.146;2023-05-10T12:05:27;0.75;;;0.30;;
823;SDS011;373;49.342;8.146;2023-05-10T12:08:10;0.30;;;0.30;;
823;SDS011;373;49.342;8.146;2023-05-10T12:10:38;2.03;;;0.40;;
823;SDS011;373;49.342;8.146;2023-05-10T12:13:05;1.30;;;0.40;;
823;SDS011;373;49.342;8.146;2023-05-10T12:15:37;1.10;;;0.35;;
823;SDS011;373;49.342;8.146;2023-05-10T12:18:05;3.22;;;0.60;;
823;SDS011;373;49.342;8.146;2023-05-10T12:20:35;1.38;;;0.50;;
823;SDS011;373;49.342;8.146;2023-05-10T12:23:03;1.67;;;0.50;;
823;SDS011;373;49.342;8.146;2023-05-10T12:25:31;0.90;;;0.40;;
823;SDS011;373;49.342;8.146;2023-05-10T12:28:02;2.53;;;1.17;;
823;SDS011;373;49.342;8.146;2023-05-10T12:30:31;0.45;;;0.35;;
823;SDS011;373;49.342;8.146;2023-05-10T12:32:59;1.35;;;0.43;;
823;SDS011;373;49.342;8.146;2023-05-10T12:35:33;1.50;;;0.40;;
823;SDS011;373;49.342;8.146;2023-05-10T12:38:22;1.00;;;0.52;;
823;SDS011;373;49.342;8.146;2023-05-10T12:40:55;1.52;;;0.47;;
823;SDS011;373;49.342;8.146;2023-05-10T12:43:22;0.80;;;0.47;;
823;SDS011;373;49.342;8.146;2023-05-10T12:45:50;2.30;;;0.50;;
823;SDS011;373;49.342;8.146;2023-05-10T12:48:17;1.90;;;0.40;;
823;SDS011;373;49.342;8.146;2023-05-10T12:50:46;0.85;;;0.50;;
823;SDS011;373;49.342;8.146;2023-05-10T12:53:13;0.73;;;0.57;;
823;SDS011;373;49.342;8.146;2023-05-10T12:55:41;0.68;;;0.38;;
823;SDS011;373;49.342;8.146;2023-05-10T12:58:09;0.43;;;0.40;;
823;SDS011;373;49.342;8.146;2023-05-10T13:00:36;1.38;;;0.30;;
823;SDS011;373;49.342;8.146;2023-05-10T13:03:04;2.38;;;0.40;;
823;SDS011;373;49.342;8.146;2023-05-10T13:05:31;0.93;;;0.30;;
823;SDS011;373;49.342;8.146;2023-05-10T13:08:00;0.65;;;0.50;;
823;SDS011;373;49.342;8.146;2023-05-10T13:10:28;0.38;;;0.28;;
823;SDS011;373;49.342;8.146;2023-05-10T13:12:56;0.30;;;0.30;;
823;SDS011;373;49.342;8.146;2023-05-10T13:15:24;0.68;;;0.30;;
823;SDS011;373;49.342;8.146;2023-05-10T13:17:53;2.78;;;0.63;;
823;SDS011;373;49.342;8.146;2023-05-10T13:20:21;0.95;;;0.40;;
823;SDS011;373;49.342;8.146;2023-05-10T13:22:49;1.17;;;0.35;;
823;SDS011;373;49.342;8.146;2023-05-10T13:25:18;0.73;;;0.20;;
823;SDS011;373;49.342;8.146;2023-05-10T13:27:45;0.30;;;0.20;;
823;SDS011;373;49.342;8.146;2023-05-10T13:30:13;0.20;;;0.10;;
823;SDS011;373;49.342;8.146;2023-05-10T13:32:40;0.70;;;0.30;;
823;SDS011;373;49.342;8.146;2023-05-10T13:35:07;0.10;;;0.10;;
823;SDS011;373;49.342;8.146;2023-05-10T13:37:35;1.05;;;0.28;;
823;SDS011;373;49.342;8.146;2023-05-10T13:40:02;1.10;;;0.40;;
823;SDS011;373;49.342;8.146;2023-05-10T13:42:32;0.40;;;0.30;;
823;SDS011;373;49.342;8.146;2023-05-10T13:45:00;0.50;;;0.32;;
823;SDS011;373;49.342;8.146;2023-05-10T13:47:27;0.95;;;0.32;;
823;SDS011;373;49.342;8.146;2023-05-10T13:49:54;0.55;;;0.35;;
823;SDS011;373;49.342;8.146;2023-05-10T13:52:22;1.08;;;0.32;;
823;SDS011;373;49.342;8.146;2023-05-10T13:54:50;1.27;;;0.50;;
823;SDS011;373;49.342;8.146;2023-05-10T13:57:22;0.88;;;0.30;;
823;SDS011;373;49.342;8.146;2023-05-10T13:59:51;0.85;;;0.30;;
823;SDS011;373;49.342;8.146;2023-05-10T14:02:18;0.98;;;0.20;;
823;SDS011;373;49.342;8.146;2023-05-10T14:04:46;0.40;;;0.20;;
823;SDS011;373;49.342;8.146;2023-05-10T14:07:13;0.88;;;0.32;;
823;SDS011;373;49.342;8.146;2023-05-10T14:09:41;1.42;;;0.30;;
823;SDS011;373;49.342;8.146;2023-05-10T14:12:08;0.55;;;0.30;;
823;SDS011;373;49.342;8.146;2023-05-10T14:14:35;0.60;;;0.30;;
823;SDS011;373;49.342;8.146;2023-05-10T14:17:04;0.65;;;0.50;;
823;SDS011;373;49.342;8.146;2023-05-10T14:19:31;0.45;;;0.30;;
823;SDS011;373;49.342;8.146;2023-05-10T14:21:59;1.40;;;0.38;;
823;SDS011;373;49.342;8.146;2023-05-10T14:24:26;1.98;;;0.28;;
823;SDS011;373;49.342;8.146;2023-05-10T14:26:54;1.35;;;0.50;;
823;SDS011;373;49.342;8.146;2023-05-10T14:29:21;0.20;;;0.20;;
823;SDS011;373;49.342;8.146;2023-05-10T14:31:49;0.60;;;0.22;;
823;SDS011;373;49.342;8.146;2023-05-10T14:34:17;0.38;;;0.30;;
823;SDS011;373;49.342;8.146;2023-05-10T14:36:45;0.30;;;0.20;;
823;SDS011;373;49.342;8.146;2023-05-10T14:39:12;2.10;;;0.38;;
823;SDS011;373;49.342;8.146;2023-05-10T14:41:40;0.43;;;0.20;;
823;SDS011;373;49.342;8.146;2023-05-10T14:44:09;0.38;;;0.20;;
823;SDS011;373;49.342;8.146;2023-05-10T14:46:37;0.52;;;0.40;;
823;SDS011;373;49.342;8.146;2023-05-10T14:49:05;0.22;;;0.20;;
823;SDS011;373;49.342;8.146;2023-05-10T14:51:34;0.30;;;0.13;;
823;SDS011;373;49.342;8.146;2023-05-10T14:54:02;0.70;;;0.20;;
823;SDS011;373;49.342;8.146;2023-05-10T14:56:29;0.30;;;0.30;;
823;SDS011;373;49.342;8.146;2023-05-10T14:58:56;1.38;;;0.40;;
823;SDS011;373;49.342;8.146;2023-05-10T15:01:24;0.63;;;0.20;;
823;SDS011;373;49.342;8.146;2023-05-10T15:03:52;0.15;;;0.10;;
823;SDS011;373;49.342;8.146;2023-05-10T15:06:22;1.08;;;0.32;;
823;SDS011;373;49.342;8.146;2023-05-10T15:08:58;0.52;;;0.28;;
823;SDS011;373;49.342;8.146;2023-05-10T15:11:25;1.23;;;0.22;;
823;SDS011;373;49.342;8.146;2023-05-10T15:13:52;0.98;;;0.38;;
823;SDS011;373;49.342;8.146;2023-05-10T15:16:23;0.20;;;0.13;;
823;SDS011;373;49.342;8.146;2023-05-10T15:18:52;0.55;;;0.35;;
823;SDS011;373;49.342;8.146;2023-05-10T15:21:19;0.30;;;0.20;;
823;SDS011;373;49.342;8.146;2023-05-10T15:23:47;0.30;;;0.25;;
823;SDS011;373;49.342;8.146;2023-05-10T15:26:15;0.28;;;0.25;;
823;SDS011;373;49.342;8.146;2023-05-10T15:28:42;0.73;;;0.30;;
823;SDS011;373;49.342;8.146;2023-05-10T15:31:10;1.13;;;0.30;;
823;SDS011;373;49.342;8.146;2023-05-10T15:33:37;0.43;;;0.10;;
823;SDS011;373;49.342;8.146;2023-05-10T15:36:04;1.65;;;0.60;;
823;SDS011;373;49.342;8.146;2023-05-10T15:38:32;0.80;;;0.20;;
823;SDS011;373;49.342;8.146;2023-05-10T15:40:59;1.02;;;0.30;;
823;SDS011;373;49.342;8.146;2023-05-10T15:43:28;0.93;;;0.50;;
823;SDS011;373;49.342;8.146;2023-05-10T15:45:55;1.35;;;0.30;;
823;SDS011;373;49.342;8.146;2023-05-10T15:48:23;1.10;;;0.28;;
823;SDS011;373;49.342;8.146;2023-05-10T15:50:50;0.63;;;0.20;;
823;SDS011;373;49.342;8.146;2023-05-10T15:53:18;1.10;;;0.40;;
823;SDS011;373;49.342;8.146;2023-05-10T15:55:45;0.35;;;0.30;;
823;SDS011;373;49.342;8.146;2023-05-10T15:58:12;1.02;;;0.40;;
823;SDS011;373;49.342;8.146;2023-05-10T16:00:40;1.08;;;0.28;;